Time;durP1;ratioP1;P1;durP2;ratioP2;P2;SDS_P1;SDS_P2;PMS_P1;PMS_P2;Temp;Humidity;BMP_temperature;BMP_pressure;BME280_temperature;BME280_humidity;BME280_pressure;Samples;Min_cycle;Max_cycle;Signal;HPM_P1;HPM_P2
2024/01/25 00:00:50;;;;;;;11.93;2.30;;;9.60;99.90;;;;;;4975010;28;20534;-74
2024/01/25 00:03:15;;;;;;;12.18;2.30;;;9.50;99.90;;;;;;4974310;28;20395;-74
2024/01/25 00:05:41;;;;;;;5.40;2.03;;;9.50;99.90;;;;;;4976044;28;20033;-75
2024/01/25 00:08:07;;;;;;;11.63;2.40;;;9.50;99.90;;;;;;4986567;28;20097;-74
2024/01/25 00:10:32;;;;;;;10.98;2.55;;;9.60;99.90;;;;;;4994352;28;20442;-75
2024/01/25 00:12:58;;;;;;;10.70;3.05;;;9.60;99.90;;;;;;4994270;28;20019;-75
2024/01/25 00:15:23;;;;;;;8.50;2.53;;;9.60;99.90;;;;;;4993677;28;20172;-75
2024/01/25 00:17:49;;;;;;;11.48;2.45;;;9.50;99.90;;;;;;4992851;28;20038;-75
2024/01/25 00:20:15;;;;;;;8.13;1.85;;;9.60;99.90;;;;;;4994809;28;20014;-75
2024/01/25 00:22:41;;;;;;;9.38;1.90;;;9.50;99.90;;;;;;4993340;28;20022;-75
2024/01/25 00:25:07;;;;;;;13.82;2.15;;;9.50;99.90;;;;;;4994826;28;20031;-75
2024/01/25 00:27:33;;;;;;;13.13;1.92;;;9.60;99.90;;;;;;4994745;28;20029;-74
2024/01/25 00:29:58;;;;;;;12.38;2.22;;;9.60;99.90;;;;;;4994803;28;20030;-75
2024/01/25 00:32:24;;;;;;;11.75;2.60;;;9.60;99.90;;;;;;4994621;28;20026;-75
2024/01/25 00:34:50;;;;;;;11.00;1.73;;;9.50;99.90;;;;;;4994610;28;20026;-74
2024/01/25 00:37:15;;;;;;;14.77;3.03;;;9.50;99.90;;;;;;5000397;28;20072;-75
2024/01/25 00:39:41;;;;;;;13.52;2.38;;;9.50;99.90;;;;;;4994472;28;20022;-73
2024/01/25 00:42:07;;;;;;;10.00;1.90;;;9.50;99.90;;;;;;4993889;28;20065;-75
2024/01/25 00:44:33;;;;;;;8.75;2.42;;;9.50;99.90;;;;;;4994612;28;20018;-75
2024/01/25 00:46:59;;;;;;;9.15;2.25;;;9.50;99.90;;;;;;4993204;28;20027;-75
2024/01/25 00:49:25;;;;;;;12.32;2.10;;;9.50;99.90;;;;;;4994165;28;20037;-75
2024/01/25 00:52:02;;;;;;;9.70;1.85;;;9.50;99.90;;;;;;4986844;28;20026;-75
2024/01/25 00:54:28;;;;;;;10.43;1.70;;;9.50;99.90;;;;;;4994283;28;20104;-75
2024/01/25 00:56:54;;;;;;;11.95;2.15;;;9.50;99.90;;;;;;4994407;28;20026;-75
2024/01/25 00:59:20;;;;;;;11.60;2.03;;;9.50;99.90;;;;;;4994248;28;20409;-75
2024/01/25 01:01:52;;;;;;;8.07;2.15;;;9.50;99.90;;;;;;4994294;28;20182;-75
2024/01/25 01:04:18;;;;;;;12.13;1.80;;;9.50;99.90;;;;;;4994072;28;20029;-76
2024/01/25 01:06:44;;;;;;;9.93;2.47;;;9.50;99.90;;;;;;5009005;28;20030;-75
2024/01/25 01:09:09;;;;;;;9.63;2.30;;;9.50;99.90;;;;;;4996807;28;20022;-74
2024/01/25 01:11:36;;;;;;;15.02;2.30;;;9.50;99.90;;;;;;4995173;28;20037;-74
2024/01/25 01:14:02;;;;;;;10.65;2.20;;;9.50;99.90;;;;;;4994542;28;20062;-75
2024/01/25 01:16:30;;;;;;;10.25;1.58;;;9.50;99.90;;;;;;4994083;28;20528;-75
2024/01/25 01:18:56;;;;;;;9.00;2.70;;;9.60;99.90;;;;;;4994093;28;20477;-74
2024/01/25 01:21:21;;;;;;;8.85;2.00;;;9.60;99.90;;;;;;4993896;28;20109;-74
2024/01/25 01:23:47;;;;;;;9.40;1.90;;;9.50;99.90;;;;;;4993663;28;20018;-74
2024/01/25 01:26:12;;;;;;;12.93;1.65;;;9.60;99.90;;;;;;4993713;28;20030;-75
2024/01/25 01:28:38;;;;;;;10.75;1.90;;;9.50;99.90;;;;;;4993481;28;20533;-73
2024/01/25 01:31:04;;;;;;;11.38;2.33;;;9.60;99.90;;;;;;4993389;28;20057;-74
2024/01/25 01:33:29;;;;;;;11.45;2.20;;;9.60;99.90;;;;;;4993618;28;20033;-74
2024/01/25 01:35:57;;;;;;;12.23;2.38;;;9.60;99.90;;;;;;4993419;28;20039;-75
2024/01/25 01:38:24;;;;;;;12.20;2.10;;;9.60;99.90;;;;;;4993580;28;20031;-75
2024/01/25 01:40:50;;;;;;;8.38;1.42;;;9.60;99.90;;;;;;4993532;28;20030;-74
2024/01/25 01:43:23;;;;;;;7.90;1.88;;;9.60;99.90;;;;;;5008506;28;20019;-75
2024/01/25 01:45:49;;;;;;;12.43;2.80;;;9.60;99.90;;;;;;4993477;28;20393;-75
2024/01/25 01:48:15;;;;;;;12.43;1.80;;;9.60;99.90;;;;;;4993558;28;20393;-75
2024/01/25 01:50:42;;;;;;;8.13;2.40;;;9.60;99.90;;;;;;4993352;28;20418;-75
2024/01/25 01:53:08;;;;;;;15.90;2.50;;;9.60;99.90;;;;;;4993153;28;20018;-74
2024/01/25 01:55:34;;;;;;;9.85;2.15;;;9.60;99.90;;;;;;4993457;28;20085;-75
2024/01/25 01:58:00;;;;;;;8.27;2.15;;;9.70;99.90;;;;;;4993251;28;20042;-75
2024/01/25 02:00:26;;;;;;;9.40;1.63;;;9.60;99.90;;;;;;4993426;28;20102;-74
2024/01/25 02:02:52;;;;;;;12.55;2.20;;;9.60;99.90;;;;;;4995985;28;20076;-75
2024/01/25 02:05:17;;;;;;;5.57;1.45;;;9.60;99.90;;;;;;4993209;28;20027;-75
2024/01/25 02:07:43;;;;;;;13.63;2.72;;;9.60;99.90;;;;;;4993374;28;20027;-75
2024/01/25 02:10:09;;;;;;;13.18;2.00;;;9.60;99.90;;;;;;4993219;28;20030;-74
2024/01/25 02:12:36;;;;;;;6.25;1.80;;;9.50;99.90;;;;;;4993134;28;20030;-73
2024/01/25 02:15:01;;;;;;;14.90;2.47;;;9.60;99.90;;;;;;4990500;28;20035;-72
2024/01/25 02:17:27;;;;;;;10.10;1.48;;;9.50;99.90;;;;;;4991868;28;20532;-73
2024/01/25 02:19:53;;;;;;;8.98;1.95;;;9.60;99.90;;;;;;4993256;28;20038;-74
2024/01/25 02:22:19;;;;;;;12.13;1.67;;;9.50;99.90;;;;;;4993348;28;20390;-73
2024/01/25 02:24:45;;;;;;;6.65;1.63;;;9.50;99.90;;;;;;4993583;28;20482;-74
2024/01/25 02:27:11;;;;;;;12.32;2.08;;;9.50;99.90;;;;;;4996951;28;20034;-75
2024/01/25 02:29:37;;;;;;;8.73;1.90;;;9.40;99.90;;;;;;4996724;28;20496;-75
2024/01/25 02:32:03;;;;;;;7.38;1.42;;;9.40;99.90;;;;;;4992505;28;20508;-75
2024/01/25 02:34:28;;;;;;;11.05;1.77;;;9.40;99.90;;;;;;4996598;28;20030;-75
2024/01/25 02:36:54;;;;;;;11.95;2.13;;;9.40;99.90;;;;;;4994752;28;20026;-75
2024/01/25 02:39:20;;;;;;;15.80;2.78;;;9.40;99.90;;;;;;4996436;28;20030;-73
2024/01/25 02:41:45;;;;;;;11.10;1.83;;;9.40;99.90;;;;;;4996568;28;20026;-74
2024/01/25 02:44:11;;;;;;;15.25;2.03;;;9.40;99.90;;;;;;4996485;28;20097;-74
2024/01/25 02:46:37;;;;;;;13.38;2.33;;;9.50;99.90;;;;;;4996412;28;20498;-74
2024/01/25 02:49:04;;;;;;;10.38;1.35;;;9.50;99.90;;;;;;4996161;28;20014;-74
2024/01/25 02:51:29;;;;;;;7.63;1.58;;;9.50;99.90;;;;;;4996566;28;20084;-74
2024/01/25 02:53:55;;;;;;;8.82;1.77;;;9.50;99.90;;;;;;4996891;28;20026;-74
2024/01/25 02:56:21;;;;;;;7.85;1.38;;;9.50;99.90;;;;;;5011631;28;20046;-74
2024/01/25 02:58:46;;;;;;;7.13;1.35;;;9.50;99.90;;;;;;4995863;28;20029;-73
2024/01/25 03:01:12;;;;;;;6.13;1.30;;;9.50;99.90;;;;;;4983753;28;20027;-74
2024/01/25 03:03:38;;;;;;;9.73;1.60;;;9.50;99.90;;;;;;4984518;28;20505;-74
2024/01/25 03:06:06;;;;;;;8.27;1.95;;;9.50;99.90;;;;;;4995829;28;20077;-74
2024/01/25 03:08:32;;;;;;;7.68;1.42;;;9.40;99.90;;;;;;4996055;28;20112;-74
2024/01/25 03:10:57;;;;;;;4.25;1.20;;;9.40;99.90;;;;;;4995936;28;20088;-74
2024/01/25 03:13:23;;;;;;;9.73;1.60;;;9.40;99.90;;;;;;4996079;28;20023;-74
2024/01/25 03:15:49;;;;;;;11.52;1.60;;;9.40;99.90;;;;;;4995862;28;20038;-74
2024/01/25 03:18:14;;;;;;;10.65;1.52;;;9.40;99.90;;;;;;4995909;28;20022;-74
2024/01/25 03:20:40;;;;;;;9.23;1.85;;;9.40;99.90;;;;;;4996117;28;20030;-73
2024/01/25 03:23:05;;;;;;;8.15;1.50;;;9.40;99.90;;;;;;4996046;28;20030;-74
2024/01/25 03:25:31;;;;;;;6.88;2.08;;;9.40;99.90;;;;;;4995832;28;20350;-74
2024/01/25 03:27:57;;;;;;;7.38;1.77;;;9.40;99.90;;;;;;4995865;28;20026;-74
2024/01/25 03:30:22;;;;;;;10.15;1.95;;;9.30;99.90;;;;;;4995842;28;20026;-74
2024/01/25 03:32:48;;;;;;;8.55;1.88;;;9.40;99.90;;;;;;4995580;28;20144;-75
2024/01/25 03:35:14;;;;;;;11.23;1.92;;;9.30;99.90;;;;;;4995983;28;20033;-73
2024/01/25 03:37:39;;;;;;;7.20;1.60;;;9.30;99.90;;;;;;4994250;28;20050;-74
2024/01/25 03:40:05;;;;;;;11.13;2.55;;;9.30;99.90;;;;;;4995469;28;20026;-74
2024/01/25 03:42:31;;;;;;;13.82;2.25;;;9.30;99.90;;;;;;4994804;28;20018;-74
2024/01/25 03:44:57;;;;;;;12.93;2.10;;;9.20;99.90;;;;;;4995163;28;20501;-74
2024/01/25 03:47:23;;;;;;;9.70;1.73;;;9.20;99.90;;;;;;4994942;28;20019;-73
2024/01/25 03:49:48;;;;;;;10.77;2.03;;;9.20;99.90;;;;;;4994062;28;20022;-73
2024/01/25 03:52:14;;;;;;;7.88;1.80;;;9.20;99.90;;;;;;4995054;28;20046;-74
2024/01/25 03:54:40;;;;;;;10.50;2.38;;;9.20;99.90;;;;;;4994997;28;20191;-74
2024/01/25 03:57:05;;;;;;;10.70;2.40;;;9.20;99.90;;;;;;4994610;28;20030;-73
2024/01/25 03:59:31;;;;;;;17.40;2.53;;;9.20;99.90;;;;;;4988220;28;20025;-74
2024/01/25 04:01:57;;;;;;;7.50;1.90;;;9.10;99.90;;;;;;4983005;28;20019;-73
2024/01/25 04:04:23;;;;;;;5.90;1.70;;;9.00;99.90;;;;;;4987349;28;20031;-74
2024/01/25 04:06:48;;;;;;;7.65;1.67;;;9.00;99.90;;;;;;4994964;28;20277;-74
2024/01/25 04:09:15;;;;;;;16.95;1.90;;;9.10;99.90;;;;;;4993972;28;20080;-74
2024/01/25 04:11:41;;;;;;;6.95;1.90;;;9.10;99.90;;;;;;4994930;28;20022;-75
2024/01/25 04:14:06;;;;;;;8.60;1.58;;;9.00;99.90;;;;;;4986879;28;20030;-75
2024/01/25 04:16:33;;;;;;;8.82;1.40;;;9.00;99.90;;;;;;4997440;28;20169;-74
2024/01/25 04:18:59;;;;;;;9.45;1.33;;;9.00;99.90;;;;;;4994691;28;20482;-74
2024/01/25 04:21:27;;;;;;;11.27;2.47;;;9.00;99.90;;;;;;4994698;28;20073;-72
2024/01/25 04:23:53;;;;;;;4.68;1.30;;;9.00;99.90;;;;;;4994603;28;20454;-73
2024/01/25 04:26:18;;;;;;;9.13;1.70;;;9.00;99.90;;;;;;4993851;28;20030;-74
2024/01/25 04:28:44;;;;;;;11.93;2.03;;;9.00;99.90;;;;;;4994616;28;20026;-73
2024/01/25 04:31:10;;;;;;;9.73;1.85;;;9.00;99.90;;;;;;4994596;28;20037;-72
2024/01/25 04:33:37;;;;;;;5.93;1.52;;;9.00;99.90;;;;;;4994167;28;20101;-73
2024/01/25 04:36:03;;;;;;;6.25;1.48;;;9.00;99.90;;;;;;4994489;28;20053;-73
2024/01/25 04:38:29;;;;;;;5.40;1.70;;;9.00;99.90;;;;;;4987899;28;20018;-73
2024/01/25 04:40:55;;;;;;;6.50;2.45;;;9.00;99.90;;;;;;4992541;28;20072;-73
2024/01/25 04:43:20;;;;;;;12.38;3.40;;;9.00;99.90;;;;;;4994223;28;20531;-73
2024/01/25 04:45:46;;;;;;;18.48;9.35;;;9.00;99.90;;;;;;4991474;28;20038;-73
2024/01/25 04:48:11;;;;;;;29.50;14.15;;;9.00;99.90;;;;;;4991638;28;20157;-73
2024/01/25 04:50:39;;;;;;;12.30;5.70;;;9.00;99.90;;;;;;4988119;28;20037;-73
2024/01/25 04:53:05;;;;;;;4.15;1.60;;;9.00;99.90;;;;;;4993940;28;20117;-74
2024/01/25 04:55:30;;;;;;;4.47;1.55;;;9.00;99.90;;;;;;4982348;28;20473;-73
2024/01/25 04:57:56;;;;;;;7.72;2.33;;;9.00;99.90;;;;;;4994090;28;20026;-74
2024/01/25 05:00:22;;;;;;;9.10;1.60;;;8.90;99.90;;;;;;4994648;28;20019;-74
2024/01/25 05:02:48;;;;;;;8.05;1.80;;;9.00;99.90;;;;;;4994042;28;20030;-74
2024/01/25 05:05:15;;;;;;;5.88;1.55;;;8.90;99.90;;;;;;4994232;28;20106;-74
2024/01/25 05:07:41;;;;;;;8.95;1.85;;;8.90;99.90;;;;;;4994018;28;20048;-72
2024/01/25 05:10:07;;;;;;;7.10;1.50;;;8.90;99.90;;;;;;4993162;28;20034;-74
2024/01/25 05:12:33;;;;;;;8.68;1.35;;;8.90;99.90;;;;;;4993905;28;20504;-74
2024/01/25 05:14:59;;;;;;;5.38;1.13;;;8.90;99.90;;;;;;4994227;28;20069;-74
2024/01/25 05:17:24;;;;;;;5.38;1.05;;;8.90;99.90;;;;;;4992799;28;20035;-75
2024/01/25 05:19:50;;;;;;;7.88;1.08;;;8.90;99.90;;;;;;4993751;28;20029;-74
2024/01/25 05:22:16;;;;;;;5.25;1.08;;;8.90;99.90;;;;;;4994090;28;20094;-73
2024/01/25 05:24:42;;;;;;;4.85;1.40;;;8.90;99.90;;;;;;4993885;28;20057;-74
2024/01/25 05:27:08;;;;;;;6.22;1.05;;;8.80;99.90;;;;;;4993647;28;20037;-74
2024/01/25 05:29:33;;;;;;;5.20;0.90;;;8.80;99.90;;;;;;4993883;28;20069;-74
2024/01/25 05:31:59;;;;;;;5.32;1.10;;;8.80;99.90;;;;;;4993592;28;20023;-75
2024/01/25 05:34:25;;;;;;;7.70;1.30;;;8.80;99.90;;;;;;4993616;28;20027;-75
2024/01/25 05:36:50;;;;;;;4.28;0.70;;;8.80;99.90;;;;;;4993493;28;20511;-73
2024/01/25 05:39:16;;;;;;;4.28;1.10;;;8.80;99.90;;;;;;4993617;28;20022;-75
2024/01/25 05:41:44;;;;;;;5.32;1.23;;;8.80;99.90;;;;;;4993438;28;20101;-75
2024/01/25 05:44:11;;;;;;;8.25;1.45;;;8.70;99.90;;;;;;4993926;28;20102;-74
2024/01/25 05:46:37;;;;;;;4.22;1.20;;;8.80;99.90;;;;;;4993586;28;20030;-75
2024/01/25 05:49:02;;;;;;;7.63;1.45;;;8.80;99.90;;;;;;4993909;28;20049;-76
2024/01/25 05:51:28;;;;;;;7.88;1.58;;;8.80;99.90;;;;;;4993392;28;20030;-72
2024/01/25 05:53:54;;;;;;;6.50;1.40;;;8.70;99.90;;;;;;4992778;28;20130;-75
2024/01/25 05:56:19;;;;;;;4.13;1.23;;;8.70;99.90;;;;;;4993668;28;20023;-73
2024/01/25 05:58:45;;;;;;;6.72;1.75;;;8.70;99.90;;;;;;4994183;28;20033;-73
2024/01/25 06:01:10;;;;;;;4.30;0.85;;;8.70;99.90;;;;;;4992385;28;20394;-74
2024/01/25 06:03:36;;;;;;;7.53;1.65;;;8.70;99.90;;;;;;4993371;28;20033;-74
2024/01/25 06:06:02;;;;;;;7.45;1.10;;;8.70;99.90;;;;;;4993395;28;20090;-75
2024/01/25 06:08:28;;;;;;;7.13;1.13;;;8.60;99.90;;;;;;4993618;28;20470;-74
2024/01/25 06:10:53;;;;;;;12.50;2.20;;;8.60;99.90;;;;;;4993436;28;20049;-73
2024/01/25 06:13:19;;;;;;;8.88;1.25;;;8.70;99.90;;;;;;4993856;28;20322;-76
2024/01/25 06:15:44;;;;;;;4.43;1.30;;;8.60;99.90;;;;;;4993108;28;20370;-72
2024/01/25 06:18:10;;;;;;;9.65;1.55;;;8.60;99.90;;;;;;4993543;28;20482;-74
2024/01/25 06:20:35;;;;;;;6.68;1.50;;;8.60;99.90;;;;;;4993546;28;20054;-74
2024/01/25 06:23:01;;;;;;;12.07;2.10;;;8.60;99.90;;;;;;4993200;28;20027;-75
2024/01/25 06:25:30;;;;;;;11.77;1.73;;;8.60;99.90;;;;;;4994865;28;20073;-75
2024/01/25 06:27:57;;;;;;;8.30;1.30;;;8.60;99.90;;;;;;4993599;28;20022;-75
2024/01/25 06:30:22;;;;;;;8.75;1.23;;;8.60;99.90;;;;;;4992789;28;20023;-74
2024/01/25 06:32:48;;;;;;;6.50;1.30;;;8.60;99.90;;;;;;4993027;28;20485;-75
2024/01/25 06:35:14;;;;;;;6.20;1.00;;;8.50;99.90;;;;;;4992516;28;20018;-75
2024/01/25 06:37:40;;;;;;;8.20;1.50;;;8.50;99.90;;;;;;4992283;28;20106;-75
2024/01/25 06:40:06;;;;;;;4.85;0.88;;;8.50;99.90;;;;;;4992862;28;20147;-75
2024/01/25 06:42:32;;;;;;;5.07;1.30;;;8.40;99.90;;;;;;4993248;28;20018;-74
2024/01/25 06:44:57;;;;;;;4.35;1.30;;;8.40;99.90;;;;;;4993345;28;20394;-74
2024/01/25 06:47:23;;;;;;;5.25;1.40;;;8.40;99.90;;;;;;4992920;28;20030;-73
2024/01/25 06:49:51;;;;;;;8.00;1.67;;;8.30;99.90;;;;;;4993073;28;20034;-73
2024/01/25 06:52:17;;;;;;;8.50;1.23;;;8.30;99.90;;;;;;4993035;28;20045;-74
2024/01/25 06:54:43;;;;;;;6.78;0.95;;;8.30;99.90;;;;;;4993148;28;20310;-76
2024/01/25 06:57:08;;;;;;;7.32;1.65;;;8.30;99.90;;;;;;5007937;28;20037;-74
2024/01/25 06:59:34;;;;;;;6.20;1.70;;;8.20;99.90;;;;;;4987189;28;20525;-70
2024/01/25 07:02:02;;;;;;;5.43;1.75;;;8.20;99.90;;;;;;4985107;28;20022;-70
2024/01/25 07:04:27;;;;;;;10.95;4.68;;;8.30;99.90;;;;;;4983954;28;20022;-70
2024/01/25 07:06:53;;;;;;;7.90;2.33;;;8.30;99.90;;;;;;4988165;28;20042;-70
2024/01/25 07:09:19;;;;;;;7.53;1.50;;;8.40;99.90;;;;;;4991775;28;20042;-73
2024/01/25 07:11:44;;;;;;;6.10;1.40;;;8.40;99.90;;;;;;4994749;28;20018;-73
2024/01/25 07:14:10;;;;;;;6.82;1.98;;;8.40;99.90;;;;;;4996354;28;20176;-74
2024/01/25 07:16:36;;;;;;;5.68;1.33;;;8.40;99.90;;;;;;4995774;28;20049;-72
2024/01/25 07:19:03;;;;;;;6.82;1.48;;;8.40;99.90;;;;;;4995794;28;20444;-73
2024/01/25 07:21:31;;;;;;;10.30;1.77;;;8.40;99.90;;;;;;4995786;28;20018;-72
2024/01/25 07:24:02;;;;;;;4.68;1.27;;;8.30;99.90;;;;;;4995975;28;20073;-73
2024/01/25 07:26:27;;;;;;;5.60;1.50;;;8.30;99.90;;;;;;4996415;28;20031;-75
2024/01/25 07:28:57;;;;;;;6.43;1.45;;;8.30;99.90;;;;;;4997389;28;20106;-74
2024/01/25 07:31:26;;;;;;;8.90;2.92;;;8.20;99.90;;;;;;4996945;28;20023;-73
2024/01/25 07:33:52;;;;;;;7.30;3.80;;;8.20;99.90;;;;;;4996263;28;20034;-75
2024/01/25 07:36:18;;;;;;;8.77;3.15;;;8.10;99.90;;;;;;4996752;28;20026;-74
2024/01/25 07:38:46;;;;;;;7.70;2.08;;;8.10;99.90;;;;;;4989633;28;20026;-75
2024/01/25 07:41:15;;;;;;;5.93;1.60;;;8.10;99.90;;;;;;4989152;28;20014;-75
2024/01/25 07:43:41;;;;;;;6.75;1.63;;;8.10;99.90;;;;;;4995961;28;20019;-76
2024/01/25 07:46:07;;;;;;;7.55;1.20;;;8.10;99.90;;;;;;4986790;28;20474;-76
2024/01/25 07:48:33;;;;;;;4.47;1.17;;;8.10;99.90;;;;;;4986298;28;20022;-76
2024/01/25 07:50:58;;;;;;;8.18;1.55;;;8.00;99.90;;;;;;4988344;28;20050;-75
2024/01/25 07:53:24;;;;;;;6.05;1.33;;;8.00;99.90;;;;;;4982476;28;20027;-75
2024/01/25 07:55:49;;;;;;;5.18;1.00;;;8.00;99.90;;;;;;4982840;28;20058;-74
2024/01/25 07:58:15;;;;;;;5.85;1.20;;;7.90;99.90;;;;;;4993998;28;20018;-75
2024/01/25 08:00:42;;;;;;;7.85;1.50;;;7.90;99.90;;;;;;4995443;28;20022;-75
2024/01/25 08:03:08;;;;;;;10.43;1.00;;;7.90;99.90;;;;;;4995507;28;20022;-75
2024/01/25 08:05:33;;;;;;;5.78;1.15;;;7.90;99.90;;;;;;4994442;28;20105;-76
2024/01/25 08:07:59;;;;;;;6.68;1.40;;;7.90;99.90;;;;;;4994442;28;20033;-74
2024/01/25 08:10:25;;;;;;;5.00;0.90;;;7.90;99.90;;;;;;4995075;28;20030;-75
2024/01/25 08:12:51;;;;;;;5.43;0.95;;;7.90;99.90;;;;;;4994296;28;20493;-75
2024/01/25 08:15:16;;;;;;;6.30;1.10;;;7.90;99.90;;;;;;4995270;28;20030;-75
2024/01/25 08:17:42;;;;;;;5.00;1.27;;;7.90;99.90;;;;;;4987645;28;20481;-75
2024/01/25 08:20:09;;;;;;;7.25;1.33;;;8.00;99.90;;;;;;5003062;28;20026;-75
2024/01/25 08:22:35;;;;;;;6.30;1.20;;;8.00;99.90;;;;;;4993022;28;20030;-75
2024/01/25 08:25:00;;;;;;;5.22;1.17;;;8.00;99.90;;;;;;4995608;28;20022;-77
2024/01/25 08:27:26;;;;;;;7.60;1.30;;;8.00;99.90;;;;;;5001373;28;20026;-75
2024/01/25 08:29:51;;;;;;;5.90;1.40;;;8.10;99.90;;;;;;4994442;28;20508;-74
2024/01/25 08:32:17;;;;;;;6.03;1.17;;;8.10;99.90;;;;;;4991848;28;20125;-76
2024/01/25 08:34:43;;;;;;;6.88;1.30;;;8.20;99.90;;;;;;4995041;28;20019;-74
2024/01/25 08:37:08;;;;;;;6.53;1.52;;;8.10;99.90;;;;;;4993965;28;20030;-76
2024/01/25 08:39:34;;;;;;;6.05;1.50;;;8.20;99.90;;;;;;4995833;28;20458;-74
2024/01/25 08:42:01;;;;;;;5.68;0.98;;;8.20;99.90;;;;;;4994171;28;20027;-74
2024/01/25 08:44:27;;;;;;;6.85;1.20;;;8.20;99.90;;;;;;4994346;28;20055;-75
2024/01/25 08:46:53;;;;;;;8.73;1.40;;;8.30;99.90;;;;;;4995921;28;20034;-75
2024/01/25 08:49:18;;;;;;;8.38;1.65;;;8.30;99.90;;;;;;4995372;28;20061;-75
2024/01/25 08:51:44;;;;;;;7.72;1.25;;;8.30;99.90;;;;;;4989777;28;20023;-75
2024/01/25 08:54:09;;;;;;;5.85;1.30;;;8.30;99.90;;;;;;4993613;28;20037;-73
2024/01/25 08:56:35;;;;;;;3.65;1.02;;;8.40;99.90;;;;;;4987298;28;20405;-75
2024/01/25 08:59:01;;;;;;;6.07;1.35;;;8.40;99.90;;;;;;4995225;28;20081;-73
2024/01/25 09:01:26;;;;;;;7.13;1.20;;;8.50;99.90;;;;;;4994802;28;20114;-73
2024/01/25 09:03:52;;;;;;;5.93;1.35;;;8.50;99.90;;;;;;4997072;28;20026;-75
2024/01/25 09:06:19;;;;;;;5.82;1.65;;;8.50;99.90;;;;;;4995516;28;20026;-73
2024/01/25 09:08:44;;;;;;;12.65;1.95;;;8.60;99.90;;;;;;4995272;28;20030;-74
2024/01/25 09:11:10;;;;;;;10.00;1.70;;;8.60;99.90;;;;;;4995204;28;20521;-77
2024/01/25 09:13:36;;;;;;;7.72;1.95;;;8.60;99.90;;;;;;4995179;28;20030;-74
2024/01/25 09:16:01;;;;;;;6.95;1.20;;;8.70;99.90;;;;;;4989111;28;20030;-74
2024/01/25 09:18:27;;;;;;;8.30;1.67;;;8.70;99.90;;;;;;4995268;28;20077;-75
2024/01/25 09:20:52;;;;;;;6.55;1.70;;;8.70;99.90;;;;;;4994770;28;20105;-75
2024/01/25 09:23:18;;;;;;;12.65;2.55;;;8.80;99.90;;;;;;4994648;28;20323;-74
2024/01/25 09:25:45;;;;;;;7.10;1.45;;;8.80;99.90;;;;;;4988168;28;20030;-74
2024/01/25 09:28:11;;;;;;;8.15;1.83;;;8.90;99.90;;;;;;4988493;28;20022;-74
2024/01/25 09:30:41;;;;;;;5.20;1.35;;;8.90;99.90;;;;;;4994898;28;20037;-74
2024/01/25 09:33:07;;;;;;;4.75;1.55;;;8.90;99.90;;;;;;4994635;28;20052;-73
2024/01/25 09:35:33;;;;;;;9.48;1.20;;;8.90;99.90;;;;;;4994233;28;20475;-75
2024/01/25 09:37:59;;;;;;;5.57;1.02;;;9.00;99.90;;;;;;5012495;28;20073;-75
2024/01/25 09:40:25;;;;;;;7.32;1.50;;;9.00;99.90;;;;;;4984961;28;20026;-75
2024/01/25 09:42:52;;;;;;;9.73;1.70;;;9.00;99.90;;;;;;4986260;28;20018;-75
2024/01/25 09:45:18;;;;;;;6.68;1.30;;;9.00;99.90;;;;;;4988151;28;20027;-74
2024/01/25 09:47:45;;;;;;;5.78;1.60;;;9.10;99.90;;;;;;4994262;28;20025;-74
2024/01/25 09:50:11;;;;;;;9.48;1.90;;;9.10;99.90;;;;;;4996025;28;20494;-74
2024/01/25 09:52:38;;;;;;;7.80;1.85;;;9.10;99.90;;;;;;4993770;28;20018;-74
2024/01/25 09:55:13;;;;;;;6.55;1.40;;;9.20;99.90;;;;;;4983800;28;20078;-75
2024/01/25 09:57:44;;;;;;;6.40;1.40;;;9.20;99.90;;;;;;4999832;28;20026;-74
2024/01/25 10:00:11;;;;;;;6.28;1.40;;;9.20;99.90;;;;;;4986999;28;20355;-74
2024/01/25 10:02:38;;;;;;;6.60;1.70;;;9.30;99.90;;;;;;4991630;28;20054;-74
2024/01/25 10:05:04;;;;;;;3.63;1.30;;;9.30;99.90;;;;;;4989696;28;20425;-73
2024/01/25 10:07:37;;;;;;;5.95;1.15;;;9.30;99.90;;;;;;4991644;28;20018;-73
2024/01/25 10:10:04;;;;;;;6.57;1.35;;;9.30;99.90;;;;;;4990719;28;20034;-74
2024/01/25 10:12:30;;;;;;;8.10;1.30;;;9.40;99.90;;;;;;4990466;28;20049;-75
2024/01/25 10:14:55;;;;;;;5.85;1.10;;;9.40;99.90;;;;;;4991847;28;20031;-74
2024/01/25 10:17:21;;;;;;;5.68;1.60;;;9.40;99.90;;;;;;4991388;28;20042;-74
2024/01/25 10:19:47;;;;;;;5.40;1.50;;;9.40;99.90;;;;;;4992574;28;20541;-73
2024/01/25 10:22:12;;;;;;;9.77;1.33;;;9.50;99.90;;;;;;4993113;28;20027;-75
2024/01/25 10:24:39;;;;;;;4.55;1.60;;;9.60;99.90;;;;;;4989987;28;20026;-74
2024/01/25 10:27:06;;;;;;;6.25;1.48;;;9.60;99.90;;;;;;4993400;28;20038;-74
2024/01/25 10:29:31;;;;;;;11.85;2.15;;;9.60;99.90;;;;;;4994075;28;20042;-75
2024/01/25 10:31:57;;;;;;;6.75;1.85;;;9.70;99.90;;;;;;4994564;28;20030;-74
2024/01/25 10:34:25;;;;;;;9.65;2.28;;;9.70;99.90;;;;;;5004469;28;20049;-76
2024/01/25 10:36:52;;;;;;;11.05;1.88;;;9.70;99.90;;;;;;5013384;28;20112;-76
2024/01/25 10:39:18;;;;;;;9.60;1.92;;;9.70;99.90;;;;;;5015420;28;20026;-75
2024/01/25 10:41:50;;;;;;;6.10;1.73;;;9.70;99.90;;;;;;5008344;28;20030;-75
2024/01/25 10:44:17;;;;;;;14.02;1.80;;;9.70;99.90;;;;;;4991009;28;20057;-73
2024/01/25 10:46:46;;;;;;;9.70;2.25;;;9.70;99.90;;;;;;4977647;28;20046;-74
2024/01/25 10:49:12;;;;;;;8.63;1.92;;;9.70;99.90;;;;;;4989828;28;20026;-72
2024/01/25 10:51:39;;;;;;;12.30;2.80;;;9.70;99.90;;;;;;4998950;28;20072;-73
2024/01/25 10:54:07;;;;;;;12.07;1.95;;;9.80;99.90;;;;;;4997084;28;20026;-75
2024/01/25 10:56:34;;;;;;;11.00;2.35;;;9.90;99.90;;;;;;4998047;28;20528;-75
2024/01/25 10:59:00;;;;;;;12.45;1.95;;;10.00;99.90;;;;;;4989136;28;20513;-75
2024/01/25 11:01:27;;;;;;;11.20;2.15;;;10.00;99.90;;;;;;4999688;28;20026;-74
2024/01/25 11:03:53;;;;;;;8.73;1.85;;;10.10;99.90;;;;;;4997931;28;20455;-74
2024/01/25 11:06:22;;;;;;;9.30;1.60;;;10.10;99.90;;;;;;4998343;28;20113;-74
2024/01/25 11:08:47;;;;;;;8.68;2.28;;;10.20;99.90;;;;;;4997326;28;20030;-74
2024/01/25 11:11:14;;;;;;;8.07;2.00;;;10.20;99.90;;;;;;4994792;28;20065;-75
2024/01/25 11:13:42;;;;;;;10.27;2.30;;;10.10;99.90;;;;;;4997779;28;20026;-73
2024/01/25 11:16:11;;;;;;;12.60;2.63;;;10.20;99.90;;;;;;4997493;28;20027;-74
2024/01/25 11:18:51;;;;;;;7.07;1.65;;;10.20;99.90;;;;;;4997456;28;20026;-74
2024/01/25 11:21:29;;;;;;;6.50;1.88;;;10.20;99.90;;;;;;4992787;28;20343;-74
2024/01/25 11:24:01;;;;;;;12.60;2.88;;;10.20;99.90;;;;;;4985639;28;20433;-74
2024/01/25 11:26:27;;;;;;;10.68;2.13;;;10.10;99.90;;;;;;4995819;28;20058;-73
2024/01/25 11:28:53;;;;;;;7.53;2.38;;;10.10;99.90;;;;;;4996831;28;20038;-74
2024/01/25 11:31:18;;;;;;;8.70;2.13;;;10.10;99.90;;;;;;4993293;28;20109;-74
2024/01/25 11:33:44;;;;;;;9.23;2.63;;;10.00;99.90;;;;;;4997918;28;20390;-73
2024/01/25 11:36:10;;;;;;;10.65;2.08;;;10.00;99.90;;;;;;4999116;28;20033;-73
2024/01/25 11:38:39;;;;;;;9.32;2.20;;;10.00;99.90;;;;;;4997939;28;20026;-73
2024/01/25 11:41:04;;;;;;;11.10;2.10;;;10.00;99.90;;;;;;4998428;28;20026;-73
2024/01/25 11:43:30;;;;;;;14.73;2.65;;;10.10;99.90;;;;;;4998011;28;20030;-74
2024/01/25 11:45:55;;;;;;;8.15;2.30;;;10.10;99.90;;;;;;4997803;28;20018;-73
2024/01/25 11:48:21;;;;;;;12.55;2.42;;;10.20;99.90;;;;;;4997401;28;20030;-73
2024/01/25 11:50:47;;;;;;;12.18;2.97;;;10.20;99.90;;;;;;4998232;28;20105;-73
2024/01/25 11:53:12;;;;;;;12.75;2.08;;;10.30;99.90;;;;;;4991468;28;20022;-73
2024/01/25 11:55:38;;;;;;;10.70;2.80;;;10.30;99.90;;;;;;4998469;28;20080;-72
2024/01/25 11:58:04;;;;;;;16.60;3.17;;;10.40;99.90;;;;;;4988421;28;20027;-75
2024/01/25 12:00:29;;;;;;;7.43;2.22;;;10.40;99.90;;;;;;4992578;28;20097;-73
2024/01/25 12:02:55;;;;;;;12.93;2.30;;;10.30;99.90;;;;;;4995798;28;20018;-75
2024/01/25 12:05:21;;;;;;;15.30;1.88;;;10.40;99.90;;;;;;4998544;28;20073;-73
2024/01/25 12:07:47;;;;;;;8.68;2.22;;;10.30;99.90;;;;;;4997860;28;20030;-73
2024/01/25 12:10:19;;;;;;;9.07;2.13;;;10.30;99.90;;;;;;4997016;28;20528;-74
2024/01/25 12:12:44;;;;;;;10.18;2.08;;;10.40;99.90;;;;;;4986234;28;20113;-75
2024/01/25 12:15:10;;;;;;;5.65;1.60;;;10.40;99.90;;;;;;4978196;28;20070;-74
2024/01/25 12:17:36;;;;;;;11.30;2.10;;;10.50;99.90;;;;;;4984482;28;20026;-74
2024/01/25 12:20:03;;;;;;;8.07;1.33;;;10.60;99.90;;;;;;4991625;28;20022;-74
2024/01/25 12:22:30;;;;;;;10.43;2.03;;;10.60;99.90;;;;;;4997139;28;20515;-74
2024/01/25 12:24:56;;;;;;;12.65;2.25;;;10.70;99.90;;;;;;4993508;28;20107;-73
2024/01/25 12:27:24;;;;;;;11.02;2.13;;;10.70;99.90;;;;;;4991430;28;20046;-73
2024/01/25 12:29:50;;;;;;;10.75;1.95;;;10.70;99.90;;;;;;4994415;28;20088;-73
2024/01/25 12:32:17;;;;;;;10.80;2.22;;;10.70;99.90;;;;;;4996534;28;20510;-73
2024/01/25 12:34:53;;;;;;;8.60;1.95;;;10.70;99.90;;;;;;4992570;28;20033;-72
2024/01/25 12:37:18;;;;;;;10.55;1.90;;;10.70;99.90;;;;;;4992009;28;20037;-72
2024/01/25 12:39:44;;;;;;;18.70;2.00;;;10.70;99.90;;;;;;4995417;28;20022;-71
2024/01/25 12:42:09;;;;;;;9.52;1.95;;;10.60;99.90;;;;;;4996326;28;20049;-71
2024/01/25 12:44:35;;;;;;;12.25;2.20;;;10.60;99.90;;;;;;4993459;28;20065;-73
2024/01/25 12:47:02;;;;;;;6.88;1.70;;;10.50;99.90;;;;;;4994212;28;20041;-72